Time;durP1;ratioP1;P1;durP2;ratioP2;P2;SDS_P1;SDS_P2;PMS_P1;PMS_P2;Temp;Humidity;BMP_temperature;BMP_pressure;BME280_temperature;BME280_humidity;BME280_pressure;Samples;Min_cycle;Max_cycle;Signal;HPM_P1;HPM_P2
2024/03/09 00:01:49;;;;;;;54.83;21.73;;;-0.40;1.00;;;;;;4381383;28;658286;-71
2024/03/09 00:04:36;;;;;;;60.60;23.33;;;-0.30;1.00;;;;;;4398877;28;658108;-71
2024/03/09 00:07:24;;;;;;;52.50;22.07;;;-0.30;1.00;;;;;;4384153;28;659278;-71
2024/03/09 00:10:12;;;;;;;56.43;22.23;;;-0.40;1.00;;;;;;4404810;28;658201;-71
2024/03/09 00:12:59;;;;;;;54.10;21.33;;;-0.40;1.00;;;;;;4371325;28;659546;-71
2024/03/09 00:15:48;;;;;;;49.20;20.73;;;-0.30;1.00;;;;;;4403081;28;658284;-71
2024/03/09 00:18:35;;;;;;;63.87;22.33;;;-0.30;1.00;;;;;;4374959;28;658579;-72
2024/03/09 00:21:23;;;;;;;55.03;21.87;;;-0.30;1.00;;;;;;4406696;28;658929;-71
2024/03/09 00:24:12;;;;;;;57.37;23.00;;;-0.40;1.00;;;;;;4421148;28;659954;-71
2024/03/09 00:26:59;;;;;;;54.57;20.20;;;-0.40;48.60;;;;;;4395830;28;659244;-71
2024/03/09 00:29:46;;;;;;;62.93;22.60;;;-0.40;44.00;;;;;;4424281;28;659874;-71
2024/03/09 00:32:35;;;;;;;57.87;22.03;;;-0.40;78.70;;;;;;4408928;28;659631;-71
2024/03/09 00:35:24;;;;;;;51.20;20.17;;;-0.40;99.90;;;;;;4410814;28;659383;-71
2024/03/09 00:38:11;;;;;;;60.33;22.20;;;-0.40;99.90;;;;;;4420011;28;658987;-71
2024/03/09 00:40:58;;;;;;;51.53;19.93;;;-0.40;99.90;;;;;;4407376;28;659733;-71
2024/03/09 00:43:47;;;;;;;50.45;20.55;;;-0.40;99.90;;;;;;4428196;28;659631;-71
2024/03/09 00:46:36;;;;;;;50.50;20.93;;;-0.30;99.90;;;;;;4394253;28;660699;-71
2024/03/09 00:49:24;;;;;;;56.40;20.97;;;-0.40;99.90;;;;;;4407687;28;660736;-71
2024/03/09 00:52:11;;;;;;;51.57;20.03;;;-0.40;99.90;;;;;;4408899;28;659393;-71
2024/03/09 00:54:59;;;;;;;50.40;20.00;;;-0.30;99.90;;;;;;4368614;28;660164;-71
2024/03/09 00:57:48;;;;;;;52.37;19.93;;;-0.30;99.90;;;;;;4401061;28;660083;-71
2024/03/09 01:00:37;;;;;;;53.93;20.97;;;-0.20;99.90;;;;;;4386057;28;660253;-71
2024/03/09 01:03:24;;;;;;;56.03;20.40;;;-0.20;99.90;;;;;;4374083;28;659457;-71
2024/03/09 01:06:12;;;;;;;51.00;20.83;;;-0.20;14.70;;;;;;4387882;28;660160;-71
2024/03/09 01:09:00;;;;;;;51.53;21.20;;;-0.20;24.90;;;;;;4364865;28;660502;-71
2024/03/09 01:11:48;;;;;;;51.00;19.50;;;-0.20;91.70;;;;;;4402419;28;659856;-71
2024/03/09 01:14:36;;;;;;;53.83;22.08;;;-0.30;19.30;;;;;;4382833;28;660354;-71
2024/03/09 01:17:23;;;;;;;58.70;22.20;;;-0.30;99.90;;;;;;4391716;28;659593;-71
2024/03/09 01:20:12;;;;;;;57.33;22.90;;;-0.40;99.90;;;;;;4399162;28;660086;-71
2024/03/09 01:23:01;;;;;;;56.37;20.67;;;-0.30;88.10;;;;;;4409348;28;660123;-71
2024/03/09 01:25:48;;;;;;;55.07;21.40;;;-0.40;60.70;;;;;;4409639;28;659805;-71
2024/03/09 01:28:36;;;;;;;51.23;20.83;;;-0.40;99.90;;;;;;4409907;28;660450;-71
2024/03/09 01:31:27;;;;;;;54.13;19.80;;;-0.30;99.90;;;;;;4387256;28;660165;-71
2024/03/09 01:34:15;;;;;;;63.83;22.43;;;-0.30;99.90;;;;;;4378996;28;660109;-71
2024/03/09 01:37:02;;;;;;;61.37;23.03;;;-0.30;99.90;;;;;;4382039;28;659927;-71
2024/03/09 01:39:54;;;;;;;61.70;23.93;;;-0.40;99.90;;;;;;4394043;28;659630;-71
2024/03/09 01:42:43;;;;;;;63.83;23.03;;;-0.50;99.90;;;;;;4413306;28;659886;-71
2024/03/09 01:45:30;;;;;;;58.50;21.97;;;-0.50;99.90;;;;;;4372470;28;659790;-71
2024/03/09 01:48:20;;;;;;;56.53;20.33;;;-0.50;1.00;;;;;;4391366;28;659948;-72
2024/03/09 01:51:07;;;;;;;54.43;20.50;;;-0.50;1.00;;;;;;4408288;28;659086;-71
2024/03/09 01:53:54;;;;;;;48.23;20.23;;;-0.60;99.90;;;;;;4387074;28;659925;-71
2024/03/09 01:56:43;;;;;;;53.87;21.43;;;-0.50;1.00;;;;;;4397352;28;659908;-72
2024/03/09 01:59:30;;;;;;;62.13;21.33;;;-0.60;1.00;;;;;;4380495;28;659209;-71
2024/03/09 02:02:17;;;;;;;53.33;21.33;;;-0.60;1.00;;;;;;4387697;28;659050;-72
2024/03/09 02:05:10;;;;;;;57.10;22.07;;;-0.60;1.00;;;;;;4417900;28;659788;-72
2024/03/09 02:07:57;;;;;;;54.27;21.47;;;-0.60;1.00;;;;;;4368938;28;659251;-71
2024/03/09 02:10:44;;;;;;;55.20;20.57;;;-0.70;1.00;;;;;;4403805;28;659600;-71
2024/03/09 02:13:33;;;;;;;57.50;20.83;;;-0.70;1.00;;;;;;4411288;28;659274;-72
2024/03/09 02:16:21;;;;;;;56.57;22.20;;;-0.70;1.00;;;;;;4388426;28;659185;-71
2024/03/09 02:19:13;;;;;;;60.03;21.90;;;-0.80;1.00;;;;;;4390679;28;658543;-71
2024/03/09 02:22:00;;;;;;;61.23;22.17;;;-0.80;1.00;;;;;;4378483;28;658948;-72
2024/03/09 02:24:54;;;;;;;58.33;21.77;;;-0.80;92.30;;;;;;4393259;28;658546;-72
2024/03/09 02:27:42;;;;;;;55.90;21.43;;;-0.90;99.90;;;;;;4378030;28;659433;-72
2024/03/09 02:30:30;;;;;;;50.13;20.27;;;-0.90;99.90;;;;;;4383221;28;659870;-72
2024/03/09 02:33:19;;;;;;;57.30;21.73;;;-0.80;99.90;;;;;;4400441;28;659684;-72
2024/03/09 02:36:07;;;;;;;47.23;19.43;;;-0.80;1.00;;;;;;4399695;28;659566;-72
2024/03/09 02:38:55;;;;;;;52.07;19.37;;;-0.80;1.00;;;;;;4401313;28;659429;-71
2024/03/09 02:41:44;;;;;;;52.60;20.03;;;-0.80;1.00;;;;;;4415052;28;658659;-71
2024/03/09 02:44:31;;;;;;;48.00;18.97;;;-0.70;1.00;;;;;;4406637;28;659399;-72
2024/03/09 02:47:21;;;;;;;61.33;23.23;;;-0.70;1.00;;;;;;4385578;28;659837;-72
2024/03/09 02:50:09;;;;;;;57.67;21.47;;;-0.70;1.00;;;;;;4386267;28;659410;-72
2024/03/09 02:52:57;;;;;;;64.40;21.80;;;-0.70;99.90;;;;;;4414363;28;658612;-71
2024/03/09 02:55:45;;;;;;;52.33;21.07;;;-0.70;99.90;;;;;;4393534;28;660016;-72
2024/03/09 02:58:34;;;;;;;51.22;20.20;;;-0.70;99.90;;;;;;4407023;28;659982;-71
2024/03/09 03:01:22;;;;;;;55.40;21.47;;;-0.70;1.00;;;;;;4427510;28;659739;-72
2024/03/09 03:04:11;;;;;;;52.27;19.67;;;-0.80;99.90;;;;;;4402808;28;660350;-71
2024/03/09 03:06:58;;;;;;;57.00;20.40;;;-0.80;99.90;;;;;;4401820;28;659615;-72
2024/03/09 03:09:50;;;;;;;56.63;21.20;;;-0.80;99.90;;;;;;4422346;28;660921;-72
2024/03/09 03:12:38;;;;;;;54.23;21.23;;;-0.90;99.90;;;;;;4417762;28;659655;-71
2024/03/09 03:15:27;;;;;;;54.30;20.87;;;-1.00;99.90;;;;;;4430285;28;661559;-72
2024/03/09 03:18:14;;;;;;;61.23;20.93;;;-1.00;1.00;;;;;;4400320;28;660565;-71
2024/03/09 03:21:02;;;;;;;57.37;22.37;;;-1.00;1.00;;;;;;4421183;28;658815;-71
2024/03/09 03:23:49;;;;;;;60.80;22.50;;;-0.90;84.10;;;;;;4412147;28;659207;-72
2024/03/09 03:26:36;;;;;;;58.75;22.60;;;-0.90;96.40;;;;;;4429677;28;659721;-72
2024/03/09 03:29:24;;;;;;;61.27;22.23;;;-0.90;99.90;;;;;;4406216;28;661206;-72
2024/03/09 03:32:15;;;;;;;49.97;21.13;;;-1.10;86.80;;;;;;4425639;28;660014;-72
2024/03/09 03:35:04;;;;;;;57.07;22.57;;;-1.00;41.30;;;;;;4404316;28;660427;-72
2024/03/09 03:37:53;;;;;;;65.90;24.23;;;-1.10;52.40;;;;;;4410987;28;659511;-72
2024/03/09 03:40:41;;;;;;;62.67;23.53;;;-1.10;72.50;;;;;;4401073;28;660004;-72
2024/03/09 03:43:28;;;;;;;66.97;23.87;;;-1.20;99.90;;;;;;4407548;28;660301;-72
2024/03/09 03:46:16;;;;;;;66.70;24.80;;;-1.10;99.90;;;;;;4429811;28;660411;-72
2024/03/09 03:49:04;;;;;;;72.93;26.30;;;-1.10;99.90;;;;;;4398264;28;659869;-72
2024/03/09 03:51:51;;;;;;;76.67;27.07;;;-1.30;99.90;;;;;;4426970;28;659418;-72
2024/03/09 03:54:39;;;;;;;65.03;25.02;;;-1.30;99.90;;;;;;4410992;28;659443;-71
2024/03/09 03:57:27;;;;;;;59.67;23.23;;;-1.40;1.00;;;;;;4427598;28;660214;-72
2024/03/09 04:00:16;;;;;;;61.00;24.10;;;-1.40;1.00;;;;;;4405220;28;658937;-72
2024/03/09 04:03:03;;;;;;;64.23;23.87;;;-1.50;1.00;;;;;;4407958;28;659081;-72
2024/03/09 04:05:53;;;;;;;63.27;22.70;;;-1.60;1.00;;;;;;4432363;28;659629;-72
2024/03/09 04:08:40;;;;;;;59.03;22.13;;;-1.60;1.00;;;;;;4397018;28;659019;-72
2024/03/09 04:11:32;;;;;;;56.17;22.10;;;-1.60;1.00;;;;;;4392706;28;659117;-72
2024/03/09 04:14:26;;;;;;;56.10;21.87;;;-1.70;1.00;;;;;;4389711;28;660111;-72
2024/03/09 04:17:13;;;;;;;57.37;22.03;;;-1.70;60.50;;;;;;4390290;28;658484;-72
2024/03/09 04:20:00;;;;;;;55.07;22.30;;;-1.60;99.90;;;;;;4406204;28;659826;-72
2024/03/09 04:22:51;;;;;;;61.80;24.07;;;-1.70;99.90;;;;;;4408517;28;661175;-72
2024/03/09 04:25:38;;;;;;;76.83;26.07;;;-1.70;99.90;;;;;;4401097;28;660473;-72
2024/03/09 04:28:27;;;;;;;67.75;25.58;;;-1.80;99.90;;;;;;4428798;28;660129;-72
2024/03/09 04:31:15;;;;;;;76.63;26.93;;;-1.80;99.90;;;;;;4388557;28;660382;-72
2024/03/09 04:34:03;;;;;;;67.93;25.50;;;-1.80;1.00;;;;;;4401620;28;659145;-72
2024/03/09 04:36:50;;;;;;;77.37;26.20;;;-1.70;1.00;;;;;;4399804;28;660013;-72
2024/03/09 04:39:43;;;;;;;64.60;24.57;;;-1.60;1.00;;;;;;4417547;28;658753;-72
2024/03/09 04:42:30;;;;;;;61.67;24.53;;;-1.70;1.00;;;;;;4397244;28;659183;-71
2024/03/09 04:45:19;;;;;;;68.57;24.87;;;-1.80;1.00;;;;;;4404814;28;658998;-72
2024/03/09 04:48:09;;;;;;;70.05;25.92;;;-1.90;1.00;;;;;;4428651;28;658616;-72
2024/03/09 04:50:56;;;;;;;61.63;23.93;;;-1.90;1.00;;;;;;4384644;28;659393;-71
2024/03/09 04:53:45;;;;;;;59.30;22.27;;;-1.90;1.00;;;;;;4401925;28;658751;-72
2024/03/09 04:56:35;;;;;;;67.57;24.70;;;-1.90;1.00;;;;;;4407437;28;658755;-71
2024/03/09 04:59:22;;;;;;;68.53;24.73;;;-2.00;26.10;;;;;;4399155;28;658731;-72
2024/03/09 05:02:10;;;;;;;67.93;25.83;;;-1.90;97.90;;;;;;4417788;28;661286;-72
2024/03/09 05:04:57;;;;;;;54.50;22.63;;;-1.90;99.90;;;;;;4429562;28;659825;-71
2024/03/09 05:07:46;;;;;;;62.73;23.80;;;-1.90;2.00;;;;;;4408588;28;660413;-72
2024/03/09 05:10:33;;;;;;;70.83;24.70;;;-2.00;21.00;;;;;;4409341;28;658733;-72
2024/03/09 05:13:21;;;;;;;64.80;23.80;;;-2.10;90.00;;;;;;4428205;28;660446;-72
2024/03/09 05:16:09;;;;;;;61.90;23.87;;;-2.10;99.90;;;;;;4391552;28;660302;-72
2024/03/09 05:18:58;;;;;;;70.53;24.20;;;-2.10;99.90;;;;;;4418985;28;659556;-72
2024/03/09 05:21:46;;;;;;;75.10;27.07;;;-2.10;99.90;;;;;;4397549;28;660490;-72
2024/03/09 05:24:33;;;;;;;142.33;45.23;;;-2.10;99.90;;;;;;4405246;28;659614;-72
2024/03/09 05:27:20;;;;;;;190.73;53.23;;;-2.10;99.90;;;;;;4420987;28;660803;-72
2024/03/09 05:30:13;;;;;;;134.02;39.92;;;-2.10;99.90;;;;;;4389397;28;660675;-72
2024/03/09 05:33:06;;;;;;;146.53;42.73;;;-2.10;99.90;;;;;;4385902;28;661661;-72
2024/03/09 05:35:53;;;;;;;111.67;35.63;;;-2.10;99.90;;;;;;4399622;28;660616;-72
2024/03/09 05:38:44;;;;;;;85.20;29.27;;;-1.90;1.00;;;;;;4415718;28;660554;-71
2024/03/09 05:41:31;;;;;;;85.70;29.67;;;-1.80;1.00;;;;;;4376888;28;659192;-72
2024/03/09 05:44:19;;;;;;;78.63;29.10;;;-1.70;1.00;;;;;;4404331;28;659378;-72
2024/03/09 05:47:08;;;;;;;74.35;25.77;;;-1.70;1.00;;;;;;4422039;28;659044;-72
2024/03/09 05:49:55;;;;;;;77.50;27.00;;;-1.60;1.00;;;;;;4392294;28;659310;-72
2024/03/09 05:52:44;;;;;;;91.93;30.47;;;-1.50;1.00;;;;;;4406309;28;658802;-72
2024/03/09 05:55:31;;;;;;;72.20;25.80;;;-1.40;1.00;;;;;;4429056;28;658480;-72
2024/03/09 05:58:20;;;;;;;74.60;25.40;;;-1.40;1.00;;;;;;4402744;28;659449;-72
2024/03/09 06:01:07;;;;;;;69.83;26.43;;;-1.30;1.00;;;;;;4427665;28;658659;-72
2024/03/09 06:03:59;;;;;;;82.13;28.10;;;-1.10;1.00;;;;;;4412549;28;659476;-72
2024/03/09 06:06:46;;;;;;;69.50;26.30;;;-0.90;1.00;;;;;;4421743;28;659440;-72
2024/03/09 06:09:33;;;;;;;64.20;25.50;;;-0.80;1.00;;;;;;4406369;28;658826;-72
2024/03/09 06:12:21;;;;;;;69.00;26.60;;;-0.70;1.00;;;;;;4419429;28;659083;-72
2024/03/09 06:15:08;;;;;;;71.00;25.13;;;-0.50;1.00;;;;;;4413955;28;659360;-72
2024/03/09 06:17:58;;;;;;;61.37;24.23;;;-0.40;1.00;;;;;;4428980;28;658718;-72
2024/03/09 06:20:47;;;;;;;58.73;23.83;;;-0.20;1.00;;;;;;4410750;28;658864;-72
2024/03/09 06:23:35;;;;;;;59.47;24.27;;;0.00;1.00;;;;;;4414274;28;658977;-72
2024/03/09 06:26:22;;;;;;;66.77;24.80;;;0.20;1.00;;;;;;4426517;28;657488;-72
2024/03/09 06:29:10;;;;;;;64.70;23.83;;;0.40;1.00;;;;;;4427704;28;657803;-72
2024/03/09 06:31:57;;;;;;;65.70;25.33;;;0.50;1.00;;;;;;4411091;28;658011;-72
2024/03/09 06:34:45;;;;;;;66.27;24.87;;;0.70;1.00;;;;;;4426172;28;659453;-72
2024/03/09 06:37:33;;;;;;;67.67;25.87;;;0.80;99.90;;;;;;4418839;28;658251;-73
2024/03/09 06:40:22;;;;;;;66.38;25.15;;;1.10;99.90;;;;;;4400870;28;659229;-73
2024/03/09 06:43:10;;;;;;;71.10;26.27;;;1.20;1.00;;;;;;4410007;28;659054;-73
2024/03/09 06:45:59;;;;;;;79.70;29.80;;;1.40;99.90;;;;;;4422044;28;657371;-73
2024/03/09 06:48:48;;;;;;;120.70;47.47;;;1.50;1.00;;;;;;4442462;28;658949;-73
2024/03/09 06:51:35;;;;;;;132.33;48.50;;;1.40;99.90;;;;;;4409028;28;659054;-73
2024/03/09 06:54:24;;;;;;;124.33;45.30;;;1.40;99.90;;;;;;4370891;28;659671;-73
2024/03/09 06:57:11;;;;;;;125.70;47.03;;;1.50;99.90;;;;;;4415543;28;659925;-73
2024/03/09 06:59:58;;;;;;;107.23;40.00;;;1.50;9.10;;;;;;4391237;28;660155;-73
2024/03/09 07:02:46;;;;;;;101.77;39.87;;;1.60;1.00;;;;;;4408640;28;659126;-73
2024/03/09 07:05:34;;;;;;;105.85;38.38;;;1.60;99.90;;;;;;4388058;28;659716;-73
2024/03/09 07:08:21;;;;;;;93.17;34.57;;;1.50;99.90;;;;;;4403259;28;660008;-73
2024/03/09 07:11:10;;;;;;;88.37;34.93;;;1.50;99.90;;;;;;4383055;28;659135;-73
2024/03/09 07:13:58;;;;;;;87.77;34.23;;;1.40;99.90;;;;;;4371597;28;658772;-73
2024/03/09 07:16:46;;;;;;;86.17;32.97;;;1.50;19.20;;;;;;4395746;28;658550;-72
2024/03/09 07:19:36;;;;;;;77.33;29.03;;;1.40;99.90;;;;;;4389476;28;658410;-73
2024/03/09 07:22:23;;;;;;;79.90;31.37;;;1.40;14.20;;;;;;4384531;28;658854;-72
2024/03/09 07:25:11;;;;;;;77.07;28.47;;;1.40;99.90;;;;;;4413239;28;659358;-73
2024/03/09 07:28:01;;;;;;;78.03;29.13;;;1.40;99.90;;;;;;4390199;28;658501;-73
2024/03/09 07:30:48;;;;;;;68.67;27.00;;;1.50;99.90;;;;;;4389004;28;659736;-73
2024/03/09 07:33:36;;;;;;;76.23;28.77;;;1.50;1.00;;;;;;4413524;28;658966;-72
2024/03/09 07:36:23;;;;;;;72.73;24.77;;;1.60;99.90;;;;;;4382567;28;657934;-72
2024/03/09 07:39:15;;;;;;;74.57;27.30;;;1.70;1.00;;;;;;4418374;28;659066;-72
2024/03/09 07:42:02;;;;;;;69.33;26.77;;;1.80;19.40;;;;;;4373695;28;658098;-72
2024/03/09 07:44:51;;;;;;;77.80;29.00;;;1.90;99.90;;;;;;4416954;28;660162;-72
2024/03/09 07:47:41;;;;;;;77.30;29.50;;;2.20;1.00;;;;;;4380178;28;658369;-72
2024/03/09 07:50:28;;;;;;;72.07;28.67;;;2.60;1.00;;;;;;4373447;28;657379;-73
2024/03/09 07:53:15;;;;;;;60.57;24.27;;;2.80;1.00;;;;;;4414760;28;657774;-72
2024/03/09 07:56:03;;;;;;;67.13;27.00;;;2.80;1.00;;;;;;4408924;28;657631;-72
2024/03/09 07:58:50;;;;;;;63.57;25.83;;;3.00;99.90;;;;;;4431137;28;659241;-72
2024/03/09 08:01:39;;;;;;;59.60;23.33;;;3.20;1.00;;;;;;4427834;28;658800;-72
2024/03/09 08:04:27;;;;;;;61.17;25.87;;;3.40;1.00;;;;;;4429221;28;658284;-73
2024/03/09 08:07:14;;;;;;;59.93;23.67;;;3.70;1.00;;;;;;4378538;28;658349;-73
2024/03/09 08:10:01;;;;;;;62.57;25.03;;;4.00;99.90;;;;;;4413195;28;657657;-73
2024/03/09 08:12:49;;;;;;;42.90;19.47;;;4.00;99.90;;;;;;4397876;28;658883;-73
2024/03/09 08:15:36;;;;;;;56.23;22.97;;;4.20;28.60;;;;;;4416593;28;658850;-74
2024/03/09 08:18:25;;;;;;;56.77;24.43;;;4.50;1.00;;;;;;4386617;28;659464;-73
2024/03/09 08:21:13;;;;;;;64.97;24.60;;;4.80;1.00;;;;;;4415657;28;657800;-73
2024/03/09 08:24:01;;;;;;;82.07;31.77;;;5.00;1.00;;;;;;4427909;28;658753;-74
2024/03/09 08:26:48;;;;;;;75.47;29.67;;;4.90;97.90;;;;;;4410076;28;657392;-74
2024/03/09 08:29:35;;;;;;;65.93;25.97;;;5.00;99.90;;;;;;4432309;28;660039;-74
2024/03/09 08:32:25;;;;;;;66.40;26.88;;;5.10;1.00;;;;;;4392490;28;659078;-74
2024/03/09 08:35:15;;;;;;;68.73;26.93;;;5.10;1.00;;;;;;4418572;28;657862;-73
2024/03/09 08:38:02;;;;;;;55.63;24.03;;;5.10;78.90;;;;;;4380808;28;657875;-73
2024/03/09 08:40:49;;;;;;;62.67;24.90;;;5.10;1.00;;;;;;4406475;28;659539;-72
2024/03/09 08:43:37;;;;;;;61.93;24.93;;;5.20;99.90;;;;;;4403864;28;657567;-73
2024/03/09 08:46:24;;;;;;;49.80;22.00;;;5.30;99.90;;;;;;4383712;28;658580;-73
2024/03/09 08:49:13;;;;;;;51.70;21.17;;;5.70;1.00;;;;;;4412296;28;658331;-72
2024/03/09 08:52:02;;;;;;;63.83;23.17;;;5.80;1.00;;;;;;4386856;28;657675;-73
2024/03/09 08:54:50;;;;;;;51.87;20.80;;;6.30;69.00;;;;;;4390575;28;658420;-72
2024/03/09 08:57:37;;;;;;;48.27;20.87;;;6.00;1.00;;;;;;4430464;28;659415;-73
2024/03/09 09:00:25;;;;;;;54.20;20.17;;;5.60;1.00;;;;;;4408456;28;658510;-72
2024/03/09 09:03:14;;;;;;;62.63;24.60;;;5.60;22.20;;;;;;4421885;28;658723;-73
2024/03/09 09:06:01;;;;;;;53.93;23.20;;;5.60;1.00;;;;;;4430736;28;659462;-73
2024/03/09 09:08:51;;;;;;;53.37;23.83;;;5.50;72.90;;;;;;4412572;28;657801;-73
2024/03/09 09:11:39;;;;;;;47.27;20.63;;;6.00;1.00;;;;;;4411012;28;659604;-72
2024/03/09 09:14:26;;;;;;;51.17;19.43;;;6.30;1.00;;;;;;4433374;28;658017;-72
2024/03/09 09:17:14;;;;;;;53.00;21.37;;;5.90;1.00;;;;;;4410906;28;657654;-72
2024/03/09 09:20:01;;;;;;;52.37;21.17;;;5.70;99.90;;;;;;4431134;28;658052;-72
2024/03/09 09:22:48;;;;;;;47.20;18.90;;;5.70;1.00;;;;;;4410955;28;659160;-72
2024/03/09 09:25:38;;;;;;;53.77;22.33;;;5.80;99.90;;;;;;4434912;28;657859;-72
2024/03/09 09:28:25;;;;;;;50.57;21.13;;;5.80;1.00;;;;;;4406593;28;659208;-72
2024/03/09 09:31:13;;;;;;;54.77;21.97;;;6.30;91.50;;;;;;4412013;28;657902;-72
2024/03/09 09:34:00;;;;;;;51.77;22.77;;;6.40;72.90;;;;;;4433275;28;659421;-71
2024/03/09 09:36:48;;;;;;;52.10;21.73;;;6.80;28.70;;;;;;4399661;28;659037;-72
2024/03/09 09:39:35;;;;;;;49.87;21.00;;;7.20;1.00;;;;;;4429119;28;660160;-72
2024/03/09 09:42:24;;;;;;;43.57;19.17;;;7.20;94.00;;;;;;4423358;28;658341;-72
2024/03/09 09:45:17;;;;;;;30.87;14.93;;;7.60;99.90;;;;;;4429706;28;659137;-71
2024/03/09 09:48:05;;;;;;;31.87;14.10;;;8.60;99.90;;;;;;4377296;28;658566;-71
2024/03/09 09:50:53;;;;;;;32.55;15.35;;;9.60;1.00;;;;;;4414694;28;658798;-70
2024/03/09 09:53:42;;;;;;;30.60;14.20;;;9.40;69.90;;;;;;4448667;28;658087;-70
2024/03/09 09:56:29;;;;;;;30.27;13.47;;;9.50;99.90;;;;;;4372763;28;660307;-70
2024/03/09 09:59:18;;;;;;;29.03;12.83;;;9.70;99.90;;;;;;4399665;28;658776;-70
2024/03/09 10:02:05;;;;;;;30.38;13.98;;;9.80;99.90;;;;;;4375212;28;659462;-70
2024/03/09 10:04:53;;;;;;;23.40;10.63;;;9.80;99.90;;;;;;4392641;28;658784;-70
2024/03/09 10:07:48;;;;;;;29.87;13.10;;;9.80;99.90;;;;;;4412054;28;660256;-70
2024/03/09 10:10:37;;;;;;;27.27;12.87;;;9.40;99.90;;;;;;4365959;28;659008;-72
2024/03/09 10:13:25;;;;;;;25.37;13.50;;;9.40;99.90;;;;;;4393160;28;659583;-72
2024/03/09 10:16:16;;;;;;;28.80;13.17;;;9.40;1.00;;;;;;4389842;28;659431;-72
2024/03/09 10:19:03;;;;;;;33.93;16.33;;;9.60;99.90;;;;;;4392953;28;658120;-73
2024/03/09 10:21:51;;;;;;;30.70;16.00;;;9.70;1.00;;;;;;4410858;28;659012;-73
2024/03/09 10:24:52;;;;;;;34.90;14.97;;;10.10;99.90;;;;;;4394363;28;657154;-70
2024/03/09 10:27:39;;;;;;;34.47;13.03;;;9.90;99.90;;;;;;4362143;28;661021;-70
2024/03/09 10:30:26;;;;;;;39.70;18.20;;;10.00;99.90;;;;;;4411161;28;658401;-71
2024/03/09 10:33:16;;;;;;;36.43;18.30;;;10.50;27.80;;;;;;4387633;28;660042;-71
2024/03/09 10:36:03;;;;;;;46.20;22.17;;;10.40;99.90;;;;;;4379587;28;659931;-70
2024/03/09 10:38:54;;;;;;;21.70;10.37;;;10.30;99.90;;;;;;4410374;28;660343;-71
2024/03/09 10:41:41;;;;;;;26.03;12.03;;;10.20;42.00;;;;;;4384962;28;660402;-70
2024/03/09 10:44:28;;;;;;;22.97;11.53;;;10.20;99.90;;;;;;4391269;28;660020;-71
2024/03/09 10:47:15;;;;;;;23.50;10.20;;;11.40;8.80;;;;;;4414300;28;660751;-70
2024/03/09 10:50:04;;;;;;;20.53;11.00;;;12.30;1.00;;;;;;4392497;28;659091;-70
2024/03/09 10:53:07;;;;;;;19.27;10.40;;;11.70;1.00;;;;;;4410986;28;658885;-70
2024/03/09 10:55:56;;;;;;;23.23;11.00;;;12.20;1.00;;;;;;4379023;28;659961;-70
2024/03/09 10:58:44;;;;;;;16.37;9.17;;;12.90;1.00;;;;;;4405081;28;658861;-70
2024/03/09 11:01:31;;;;;;;22.07;11.13;;;12.90;99.90;;;;;;4430254;28;657946;-70
2024/03/09 11:04:19;;;;;;;22.67;12.17;;;12.70;1.00;;;;;;4408691;28;659874;-71
2024/03/09 11:07:08;;;;;;;24.77;13.00;;;12.50;1.00;;;;;;4427224;28;659203;-71
2024/03/09 11:09:55;;;;;;;21.20;10.67;;;13.50;1.00;;;;;;4388518;28;659539;-71
2024/03/09 11:12:43;;;;;;;22.93;11.67;;;13.80;99.90;;;;;;4427756;28;658659;-71
2024/03/09 11:15:32;;;;;;;17.77;9.40;;;14.20;99.90;;;;;;4430788;28;660718;-71
2024/03/09 11:18:21;;;;;;;17.93;9.40;;;14.40;99.90;;;;;;4412374;28;659361;-71
2024/03/09 11:21:11;;;;;;;17.10;8.80;;;14.70;99.90;;;;;;4412294;28;658803;-71
2024/03/09 11:24:00;;;;;;;18.90;8.03;;;15.20;99.90;;;;;;4412893;28;658652;-71
2024/03/09 11:26:52;;;;;;;31.40;15.33;;;13.20;99.90;;;;;;4426685;28;658818;-71
2024/03/09 11:29:43;;;;;;;22.23;9.20;;;11.80;1.00;;;;;;4407897;28;661772;-70
2024/03/09 11:32:30;;;;;;;26.73;11.20;;;11.50;1.00;;;;;;4409610;28;658664;-70
2024/03/09 11:35:27;;;;;;;36.80;17.13;;;10.60;54.80;;;;;;4415183;28;658729;-71
2024/03/09 11:38:16;;;;;;;36.13;17.17;;;9.50;1.00;;;;;;4395818;28;660716;-71
2024/03/09 11:41:06;;;;;;;32.00;12.93;;;10.10;1.00;;;;;;4410764;28;657167;-71
2024/03/09 11:43:53;;;;;;;28.10;14.10;;;10.70;99.90;;;;;;4412782;28;658808;-71
2024/03/09 11:46:40;;;;;;;30.07;14.47;;;11.20;1.00;;;;;;4430316;28;659597;-71
2024/03/09 11:49:28;;;;;;;25.97;13.83;;;12.90;1.00;;;;;;4404861;28;659205;-72
2024/03/09 11:52:15;;;;;;;26.43;12.77;;;14.10;1.00;;;;;;4431254;28;659389;-71
2024/03/09 11:55:03;;;;;;;27.00;14.43;;;13.20;1.00;;;;;;4405591;28;658777;-71
2024/03/09 11:57:54;;;;;;;31.43;13.03;;;12.70;1.00;;;;;;4430706;28;659657;-71
2024/03/09 12:00:41;;;;;;;29.57;14.00;;;13.30;1.00;;;;;;4408732;28;658757;-71
2024/03/09 12:03:30;;;;;;;24.87;12.97;;;13.50;1.00;;;;;;4412005;28;658609;-71
2024/03/09 12:06:17;;;;;;;33.60;16.40;;;14.10;99.90;;;;;;4422432;28;658768;-72
2024/03/09 12:09:06;;;;;;;27.50;13.93;;;14.90;99.90;;;;;;4434030;28;660923;-71
2024/03/09 12:11:53;;;;;;;23.50;12.40;;;15.40;99.90;;;;;;4410810;28;660330;-71
2024/03/09 12:14:42;;;;;;;22.10;11.40;;;15.60;99.90;;;;;;4431582;28;660603;-71
2024/03/09 12:17:29;;;;;;;23.03;11.27;;;15.50;99.90;;;;;;4407035;28;661452;-72
2024/03/09 12:20:17;;;;;;;16.63;9.73;;;15.50;99.90;;;;;;4433280;28;659426;-71
2024/03/09 12:23:10;;;;;;;21.67;11.70;;;14.40;99.90;;;;;;4406535;28;659526;-72
2024/03/09 12:25:58;;;;;;;20.47;10.93;;;14.90;99.90;;;;;;4406626;28;659675;-72
2024/03/09 12:28:46;;;;;;;16.10;9.77;;;16.00;99.90;;;;;;4431425;28;660305;-72
2024/03/09 12:31:38;;;;;;;19.33;10.50;;;16.40;99.90;;;;;;4411657;28;658901;-72
2024/03/09 12:34:25;;;;;;;20.77;11.10;;;16.60;99.90;;;;;;4406445;28;661262;-72
2024/03/09 12:37:14;;;;;;;21.07;9.90;;;16.30;99.90;;;;;;4399394;28;660614;-71
2024/03/09 12:40:17;;;;;;;18.00;9.33;;;16.20;99.90;;;;;;4430379;28;658937;-72
2024/03/09 12:43:05;;;;;;;14.70;7.87;;;16.20;99.90;;;;;;4410740;28;659205;-71
2024/03/09 12:45:53;;;;;;;18.37;9.83;;;16.50;99.90;;;;;;4411732;28;659073;-71
2024/03/09 12:48:41;;;;;;;16.67;8.33;;;16.40;99.90;;;;;;4430198;28;660420;-72
2024/03/09 12:51:28;;;;;;;16.47;9.13;;;16.70;99.90;;;;;;4410893;28;659170;-72
2024/03/09 12:54:16;;;;;;;20.67;10.83;;;16.50;99.90;;;;;;4430239;28;658798;-72
2024/03/09 12:57:07;;;;;;;16.67;9.23;;;16.80;99.90;;;;;;4399662;28;660135;-71
2024/03/09 12:59:54;;;;;;;17.77;9.80;;;16.90;99.90;;;;;;4394051;28;659095;-71
2024/03/09 13:02:41;;;;;;;20.47;10.30;;;16.80;99.90;;;;;;4428614;28;659068;-71
2024/03/09 13:05:33;;;;;;;20.90;11.17;;;17.40;99.90;;;;;;4426870;28;659716;-71
2024/03/09 13:08:23;;;;;;;18.37;10.10;;;18.10;99.90;;;;;;4423480;28;660887;-71
2024/03/09 13:11:11;;;;;;;20.27;9.73;;;17.10;99.90;;;;;;4427433;28;659932;-71
2024/03/09 13:13:58;;;;;;;17.17;9.30;;;16.30;99.90;;;;;;4428889;28;658658;-71
2024/03/09 13:16:46;;;;;;;23.33;11.33;;;15.30;99.90;;;;;;4447541;28;659840;-71
2024/03/09 13:19:33;;;;;;;19.50;11.07;;;14.90;99.90;;;;;;4427617;28;659582;-71
2024/03/09 13:22:21;;;;;;;32.30;14.30;;;13.00;99.90;;;;;;4448420;28;660474;-71
2024/03/09 13:25:10;;;;;;;21.07;12.10;;;13.00;99.90;;;;;;4423479;28;659576;-71
2024/03/09 13:27:57;;;;;;;20.03;11.67;;;13.00;99.90;;;;;;4427102;28;660254;-71
2024/03/09 13:30:46;;;;;;;20.40;11.00;;;13.00;99.90;;;;;;4450376;28;660468;-71
2024/03/09 13:33:41;;;;;;;20.87;11.30;;;13.20;99.90;;;;;;4426722;28;660157;-70
2024/03/09 13:36:28;;;;;;;24.07;12.63;;;13.30;99.90;;;;;;4393878;28;659897;-71
2024/03/09 13:39:17;;;;;;;22.70;12.70;;;13.50;99.90;;;;;;4444594;28;661633;-71
2024/03/09 13:42:08;;;;;;;27.77;14.20;;;14.30;99.90;;;;;;4423285;28;660666;-71
2024/03/09 13:44:55;;;;;;;28.50;14.40;;;15.20;99.90;;;;;;4423188;28;660940;-71
2024/03/09 13:47:43;;;;;;;25.67;13.93;;;16.00;99.90;;;;;;4426858;28;660298;-71
2024/03/09 13:50:30;;;;;;;25.63;13.97;;;15.70;99.90;;;;;;4446718;28;661226;-71
2024/03/09 13:53:18;;;;;;;29.30;14.57;;;15.70;99.90;;;;;;4442129;28;660022;-71
2024/03/09 13:56:12;;;;;;;26.03;14.83;;;16.00;99.90;;;;;;4417263;28;660944;-71
2024/03/09 13:58:59;;;;;;;29.40;14.57;;;16.00;99.90;;;;;;4370174;28;659944;-71
2024/03/09 14:01:46;;;;;;;31.65;15.75;;;15.90;99.90;;;;;;4427943;28;660125;-71
2024/03/09 14:04:35;;;;;;;43.73;17.13;;;16.40;99.90;;;;;;4404893;28;659214;-71
2024/03/09 14:07:22;;;;;;;47.60;17.87;;;15.60;99.90;;;;;;4412097;28;660018;-71
2024/03/09 14:10:15;;;;;;;29.23;15.37;;;15.10;99.90;;;;;;4415714;28;660674;-71